sensor_id;sensor_type;location;lat;lon;timestamp;temperature;humidity
17687;DHT22;8962;52.538;13.266;2023-03-04T00:00:08;2.40;99.90
17687;DHT22;8962;52.538;13.266;2023-03-04T00:02:38;2.30;99.90
17687;DHT22;8962;52.538;13.266;2023-03-04T00:05:06;2.30;99.90
17687;DHT22;8962;52.538;13.266;2023-03-04T00:07:34;2.30;99.90
17687;DHT22;8962;52.538;13.266;2023-03-04T00:10:01;2.30;99.90
17687;DHT22;8962;52.538;13.266;2023-03-04T00:12:29;2.30;99.90
17687;DHT22;8962;52.538;13.266;2023-03-04T00:14:56;2.40;99.90
17687;DHT22;8962;52.538;13.266;2023-03-04T00:17:24;2.40;99.90
17687;DHT22;8962;52.538;13.266;2023-03-04T00:19:55;2.50;99.90
17687;DHT22;8962;52.538;13.266;2023-03-04T00:22:22;2.50;99.90
17687;DHT22;8962;52.538;13.266;2023-03-04T00:24:49;2.60;99.90
17687;DHT22;8962;52.538;13.266;2023-03-04T00:27:17;2.60;99.90
17687;DHT22;8962;52.538;13.266;2023-03-04T00:29:44;2.60;99.90
17687;DHT22;8962;52.538;13.266;2023-03-04T00:32:13;2.70;99.90
17687;DHT22;8962;52.538;13.266;2023-03-04T00:34:44;2.70;99.90
17687;DHT22;8962;52.538;13.266;2023-03-04T00:37:11;2.70;99.90
17687;DHT22;8962;52.538;13.266;2023-03-04T00:39:39;2.80;99.90
17687;DHT22;8962;52.538;13.266;2023-03-04T00:42:06;2.80;99.90
17687;DHT22;8962;52.538;13.266;2023-03-04T00:44:34;2.80;99.90
17687;DHT22;8962;52.538;13.266;2023-03-04T00:47:01;2.80;99.90
17687;DHT22;8962;52.538;13.266;2023-03-04T00:49:30;2.80;99.90
17687;DHT22;8962;52.538;13.266;2023-03-04T00:51:58;2.80;99.90
17687;DHT22;8962;52.538;13.266;2023-03-04T00:54:26;2.90;99.90
17687;DHT22;8962;52.538;13.266;2023-03-04T00:56:53;2.90;99.90
17687;DHT22;8962;52.538;13.266;2023-03-04T00:59:20;3.00;99.90
17687;DHT22;8962;52.538;13.266;2023-03-04T01:01:47;2.90;99.90
17687;DHT22;8962;52.538;13.266;2023-03-04T01:04:17;2.90;99.90
17687;DHT22;8962;52.538;13.266;2023-03-04T01:06:44;3.00;99.90
17687;DHT22;8962;52.538;13.266;2023-03-04T01:09:13;2.90;99.90
17687;DHT22;8962;52.538;13.266;2023-03-04T01:11:40;3.00;99.90
17687;DHT22;8962;52.538;13.266;2023-03-04T01:14:08;3.10;99.90
17687;DHT22;8962;52.538;13.266;2023-03-04T01:16:35;3.10;99.90
17687;DHT22;8962;52.538;13.266;2023-03-04T01:19:03;3.10;99.90
17687;DHT22;8962;52.538;13.266;2023-03-04T01:21:30;3.20;99.90
17687;DHT22;8962;52.538;13.266;2023-03-04T01:23:57;3.20;99.90
17687;DHT22;8962;52.538;13.266;2023-03-04T01:26:26;3.20;99.90
17687;DHT22;8962;52.538;13.266;2023-03-04T01:28:54;3.20;99.90
17687;DHT22;8962;52.538;13.266;2023-03-04T01:31:23;3.30;99.90
17687;DHT22;8962;52.538;13.266;2023-03-04T01:33:51;3.20;99.90
17687;DHT22;8962;52.538;13.266;2023-03-04T01:36:18;3.30;99.90
17687;DHT22;8962;52.538;13.266;2023-03-04T01:38:45;3.30;99.90
17687;DHT22;8962;52.538;13.266;2023-03-04T01:41:15;3.40;99.90
17687;DHT22;8962;52.538;13.266;2023-03-04T01:43:44;3.40;99.90
17687;DHT22;8962;52.538;13.266;2023-03-04T01:46:12;3.40;99.90
17687;DHT22;8962;52.538;13.266;2023-03-04T01:48:42;3.40;99.90
17687;DHT22;8962;52.538;13.266;2023-03-04T01:51:12;3.40;99.90
17687;DHT22;8962;52.538;13.266;2023-03-04T01:53:42;3.50;99.90
17687;DHT22;8962;52.538;13.266;2023-03-04T01:56:15;3.50;99.90
17687;DHT22;8962;52.538;13.266;2023-03-04T01:59:07;3.50;99.90
17687;DHT22;8962;52.538;13.266;2023-03-04T02:01:37;3.50;99.90
17687;DHT22;8962;52.538;13.266;2023-03-04T02:04:06;3.60;99.90
17687;DHT22;8962;52.538;13.266;2023-03-04T02:06:35;3.60;99.90
17687;DHT22;8962;52.538;13.266;2023-03-04T02:09:04;3.70;99.90
17687;DHT22;8962;52.538;13.266;2023-03-04T02:11:35;3.70;99.90
17687;DHT22;8962;52.538;13.266;2023-03-04T02:14:08;3.90;99.90
17687;DHT22;8962;52.538;13.266;2023-03-04T02:16:35;3.70;99.90
17687;DHT22;8962;52.538;13.266;2023-03-04T02:19:12;3.80;99.90
17687;DHT22;8962;52.538;13.266;2023-03-04T02:21:44;3.80;99.90
17687;DHT22;8962;52.538;13.266;2023-03-04T02:24:16;3.80;99.90
17687;DHT22;8962;52.538;13.266;2023-03-04T02:26:47;3.90;99.90
17687;DHT22;8962;52.538;13.266;2023-03-04T02:29:16;3.90;99.90
17687;DHT22;8962;52.538;13.266;2023-03-04T02:31:45;3.90;99.90
17687;DHT22;8962;52.538;13.266;2023-03-04T02:34:15;3.90;99.90
17687;DHT22;8962;52.538;13.266;2023-03-04T02:36:44;4.00;99.90
17687;DHT22;8962;52.538;13.266;2023-03-04T02:39:20;4.00;99.90
17687;DHT22;8962;52.538;13.266;2023-03-04T02:41:52;4.00;99.90
17687;DHT22;8962;52.538;13.266;2023-03-04T02:44:23;4.00;99.90
17687;DHT22;8962;52.538;13.266;2023-03-04T02:46:53;4.00;99.90
17687;DHT22;8962;52.538;13.266;2023-03-04T02:49:22;4.00;99.90
17687;DHT22;8962;52.538;13.266;2023-03-04T02:51:52;4.10;99.90
17687;DHT22;8962;52.538;13.266;2023-03-04T02:54:22;4.10;99.90
17687;DHT22;8962;52.538;13.266;2023-03-04T02:56:52;4.10;99.90
17687;DHT22;8962;52.538;13.266;2023-03-04T02:59:22;4.10;99.90
17687;DHT22;8962;52.538;13.266;2023-03-04T03:01:51;4.10;99.90
17687;DHT22;8962;52.538;13.266;2023-03-04T03:04:21;4.10;99.90
17687;DHT22;8962;52.538;13.266;2023-03-04T03:06:51;4.10;99.90
17687;DHT22;8962;52.538;13.266;2023-03-04T03:09:21;4.10;99.90
17687;DHT22;8962;52.538;13.266;2023-03-04T03:11:48;4.20;99.90
17687;DHT22;8962;52.538;13.266;2023-03-04T03:14:17;4.20;99.90
17687;DHT22;8962;52.538;13.266;2023-03-04T03:16:44;4.20;99.90
17687;DHT22;8962;52.538;13.266;2023-03-04T03:19:12;4.20;99.90
17687;DHT22;8962;52.538;13.266;2023-03-04T03:21:40;4.20;99.90
17687;DHT22;8962;52.538;13.266;2023-03-04T03:24:11;4.20;99.90
17687;DHT22;8962;52.538;13.266;2023-03-04T03:26:41;4.20;99.90
17687;DHT22;8962;52.538;13.266;2023-03-04T03:29:08;4.20;99.90
17687;DHT22;8962;52.538;13.266;2023-03-04T03:31:42;4.20;99.90
17687;DHT22;8962;52.538;13.266;2023-03-04T03:34:10;4.20;99.90
17687;DHT22;8962;52.538;13.266;2023-03-04T03:36:38;4.20;99.90
17687;DHT22;8962;52.538;13.266;2023-03-04T03:39:07;4.20;99.90
17687;DHT22;8962;52.538;13.266;2023-03-04T03:41:34;4.30;99.90
17687;DHT22;8962;52.538;13.266;2023-03-04T03:44:02;4.30;99.90
17687;DHT22;8962;52.538;13.266;2023-03-04T03:46:29;4.30;99.90
17687;DHT22;8962;52.538;13.266;2023-03-04T03:48:57;4.30;99.90
17687;DHT22;8962;52.538;13.266;2023-03-04T03:51:25;4.30;99.90
17687;DHT22;8962;52.538;13.266;2023-03-04T03:53:53;4.40;99.90
17687;DHT22;8962;52.538;13.266;2023-03-04T03:56:20;4.40;99.90
17687;DHT22;8962;52.538;13.266;2023-03-04T03:58:48;4.40;99.90
17687;DHT22;8962;52.538;13.266;2023-03-04T04:01:15;4.40;99.90
17687;DHT22;8962;52.538;13.266;2023-03-04T04:03:42;4.40;99.90
17687;DHT22;8962;52.538;13.266;2023-03-04T04:06:11;4.40;99.90
17687;DHT22;8962;52.538;13.266;2023-03-04T04:08:39;4.40;99.90
17687;DHT22;8962;52.538;13.266;2023-03-04T04:11:12;4.40;99.90
17687;DHT22;8962;52.538;13.266;2023-03-04T04:13:39;4.40;99.90
17687;DHT22;8962;52.538;13.266;2023-03-04T04:16:08;4.40;99.90
17687;DHT22;8962;52.538;13.266;2023-03-04T04:18:36;4.50;99.90
17687;DHT22;8962;52.538;13.266;2023-03-04T04:21:05;4.50;99.90
17687;DHT22;8962;52.538;13.266;2023-03-04T04:23:33;4.50;99.90
17687;DHT22;8962;52.538;13.266;2023-03-04T04:26:01;4.50;99.90
17687;DHT22;8962;52.538;13.266;2023-03-04T04:28:28;4.50;99.90
17687;DHT22;8962;52.538;13.266;2023-03-04T04:30:55;4.60;99.90
17687;DHT22;8962;52.538;13.266;2023-03-04T04:33:22;4.60;99.90
17687;DHT22;8962;52.538;13.266;2023-03-04T04:35:50;4.60;99.90
17687;DHT22;8962;52.538;13.266;2023-03-04T04:38:20;4.60;99.90
17687;DHT22;8962;52.538;13.266;2023-03-04T04:40:51;4.60;99.90
17687;DHT22;8962;52.538;13.266;2023-03-04T04:43:18;4.70;99.90
17687;DHT22;8962;52.538;13.266;2023-03-04T04:45:46;4.70;99.90
17687;DHT22;8962;52.538;13.266;2023-03-04T04:48:13;4.70;99.90
17687;DHT22;8962;52.538;13.266;2023-03-04T04:50:41;4.70;99.90
17687;DHT22;8962;52.538;13.266;2023-03-04T04:53:10;4.70;99.90
17687;DHT22;8962;52.538;13.266;2023-03-04T04:55:38;4.70;99.90
17687;DHT22;8962;52.538;13.266;2023-03-04T04:58:07;4.70;99.90
17687;DHT22;8962;52.538;13.266;2023-03-04T05:00:34;4.80;99.90
17687;DHT22;8962;52.538;13.266;2023-03-04T05:03:02;4.80;99.90
17687;DHT22;8962;52.538;13.266;2023-03-04T05:05:29;4.80;99.90
17687;DHT22;8962;52.538;13.266;2023-03-04T05:08:00;4.70;99.90
17687;DHT22;8962;52.538;13.266;2023-03-04T05:10:28;4.70;99.90
17687;DHT22;8962;52.538;13.266;2023-03-04T05:12:55;4.70;99.90
17687;DHT22;8962;52.538;13.266;2023-03-04T05:15:24;4.80;99.90
17687;DHT22;8962;52.538;13.266;2023-03-04T05:17:52;4.80;99.90
17687;DHT22;8962;52.538;13.266;2023-03-04T05:20:19;4.80;99.90
17687;DHT22;8962;52.538;13.266;2023-03-04T05:22:49;4.70;99.90
17687;DHT22;8962;52.538;13.266;2023-03-04T05:25:17;4.70;99.90
17687;DHT22;8962;52.538;13.266;2023-03-04T05:27:44;4.70;99.90
17687;DHT22;8962;52.538;13.266;2023-03-04T05:30:12;4.80;99.90
17687;DHT22;8962;52.538;13.266;2023-03-04T05:32:41;4.80;99.90
17687;DHT22;8962;52.538;13.266;2023-03-04T05:35:09;4.80;99.90
17687;DHT22;8962;52.538;13.266;2023-03-04T05:37:36;4.80;99.90
17687;DHT22;8962;52.538;13.266;2023-03-04T05:40:04;4.80;99.90
17687;DHT22;8962;52.538;13.266;2023-03-04T05:42:32;4.80;99.90
17687;DHT22;8962;52.538;13.266;2023-03-04T05:45:00;4.80;99.90
17687;DHT22;8962;52.538;13.266;2023-03-04T05:47:28;4.80;99.90
17687;DHT22;8962;52.538;13.266;2023-03-04T05:49:57;4.70;99.90
17687;DHT22;8962;52.538;13.266;2023-03-04T05:52:24;4.80;99.90
17687;DHT22;8962;52.538;13.266;2023-03-04T05:54:51;4.80;99.90
17687;DHT22;8962;52.538;13.266;2023-03-04T05:57:19;4.70;99.90
17687;DHT22;8962;52.538;13.266;2023-03-04T05:59:47;4.80;99.90
17687;DHT22;8962;52.538;13.266;2023-03-04T06:02:15;4.80;99.90
17687;DHT22;8962;52.538;13.266;2023-03-04T06:04:45;4.70;99.90
17687;DHT22;8962;52.538;13.266;2023-03-04T06:07:16;4.70;99.90
17687;DHT22;8962;52.538;13.266;2023-03-04T06:09:49;4.70;99.90
17687;DHT22;8962;52.538;13.266;2023-03-04T06:12:16;4.80;99.90
17687;DHT22;8962;52.538;13.266;2023-03-04T06:14:44;4.80;99.90
17687;DHT22;8962;52.538;13.266;2023-03-04T06:17:13;4.80;99.90
17687;DHT22;8962;52.538;13.266;2023-03-04T06:19:42;4.80;99.90
17687;DHT22;8962;52.538;13.266;2023-03-04T06:22:09;4.70;99.90
17687;DHT22;8962;52.538;13.266;2023-03-04T06:24:40;4.70;99.90
17687;DHT22;8962;52.538;13.266;2023-03-04T06:27:08;4.80;99.90
17687;DHT22;8962;52.538;13.266;2023-03-04T06:29:37;4.80;99.90
17687;DHT22;8962;52.538;13.266;2023-03-04T06:32:05;4.80;99.90
17687;DHT22;8962;52.538;13.266;2023-03-04T06:34:32;4.80;99.90
17687;DHT22;8962;52.538;13.266;2023-03-04T06:37:00;4.80;99.90
17687;DHT22;8962;52.538;13.266;2023-03-04T06:39:27;4.80;99.90
17687;DHT22;8962;52.538;13.266;2023-03-04T06:41:56;4.90;99.90
17687;DHT22;8962;52.538;13.266;2023-03-04T06:44:23;4.90;99.90
17687;DHT22;8962;52.538;13.266;2023-03-04T06:46:53;4.90;99.90
17687;DHT22;8962;52.538;13.266;2023-03-04T06:49:21;4.90;99.90
17687;DHT22;8962;52.538;13.266;2023-03-04T06:51:50;4.90;99.90
17687;DHT22;8962;52.538;13.266;2023-03-04T06:54:18;4.90;99.90
17687;DHT22;8962;52.538;13.266;2023-03-04T06:56:46;4.90;99.90
17687;DHT22;8962;52.538;13.266;2023-03-04T06:59:15;5.00;99.90
17687;DHT22;8962;52.538;13.266;2023-03-04T07:01:42;4.90;99.90
17687;DHT22;8962;52.538;13.266;2023-03-04T07:04:11;5.00;99.90
17687;DHT22;8962;52.538;13.266;2023-03-04T07:06:39;5.00;99.90
17687;DHT22;8962;52.538;13.266;2023-03-04T07:09:06;5.00;99.90
17687;DHT22;8962;52.538;13.266;2023-03-04T07:11:34;5.10;99.90
17687;DHT22;8962;52.538;13.266;2023-03-04T07:14:02;5.10;99.90
17687;DHT22;8962;52.538;13.266;2023-03-04T07:16:30;5.20;99.90
17687;DHT22;8962;52.538;13.266;2023-03-04T07:18:58;5.20;99.90
17687;DHT22;8962;52.538;13.266;2023-03-04T07:21:28;5.20;99.90
17687;DHT22;8962;52.538;13.266;2023-03-04T07:23:56;5.20;99.90
17687;DHT22;8962;52.538;13.266;2023-03-04T07:26:23;5.20;99.90
17687;DHT22;8962;52.538;13.266;2023-03-04T07:28:51;5.20;99.90
17687;DHT22;8962;52.538;13.266;2023-03-04T07:31:22;5.20;99.90
17687;DHT22;8962;52.538;13.266;2023-03-04T07:33:51;5.20;99.90
17687;DHT22;8962;52.538;13.266;2023-03-04T07:36:22;5.20;99.90
17687;DHT22;8962;52.538;13.266;2023-03-04T07:38:50;5.30;99.90
17687;DHT22;8962;52.538;13.266;2023-03-04T07:41:22;5.30;99.90
17687;DHT22;8962;52.538;13.266;2023-03-04T07:43:50;5.30;99.90
17687;DHT22;8962;52.538;13.266;2023-03-04T07:46:19;5.30;99.90
17687;DHT22;8962;52.538;13.266;2023-03-04T07:48:46;5.30;99.90
17687;DHT22;8962;52.538;13.266;2023-03-04T07:51:26;5.40;99.90
17687;DHT22;8962;52.538;13.266;2023-03-04T07:53:57;5.50;99.90
17687;DHT22;8962;52.538;13.266;2023-03-04T07:56:26;5.60;99.90
17687;DHT22;8962;52.538;13.266;2023-03-04T07:58:55;5.50;99.90
17687;DHT22;8962;52.538;13.266;2023-03-04T08:01:27;5.50;99.90
17687;DHT22;8962;52.538;13.266;2023-03-04T08:03:55;5.40;99.90
17687;DHT22;8962;52.538;13.266;2023-03-04T08:06:25;5.50;99.90
17687;DHT22;8962;52.538;13.266;2023-03-04T08:08:56;5.50;99.90
17687;DHT22;8962;52.538;13.266;2023-03-04T08:11:25;5.50;99.90
17687;DHT22;8962;52.538;13.266;2023-03-04T08:13:53;5.50;99.90
17687;DHT22;8962;52.538;13.266;2023-03-04T08:16:22;5.50;99.90
17687;DHT22;8962;52.538;13.266;2023-03-04T08:18:51;5.60;99.90
17687;DHT22;8962;52.538;13.266;2023-03-04T08:21:19;5.60;99.90
17687;DHT22;8962;52.538;13.266;2023-03-04T08:23:50;5.60;99.90
17687;DHT22;8962;52.538;13.266;2023-03-04T08:26:20;5.60;99.90
17687;DHT22;8962;52.538;13.266;2023-03-04T08:28:47;5.60;99.90
17687;DHT22;8962;52.538;13.266;2023-03-04T08:31:16;5.60;99.90
17687;DHT22;8962;52.538;13.266;2023-03-04T08:33:46;5.60;99.90
17687;DHT22;8962;52.538;13.266;2023-03-04T08:36:18;5.70;99.90
17687;DHT22;8962;52.538;13.266;2023-03-04T08:38:45;5.80;99.90
17687;DHT22;8962;52.538;13.266;2023-03-04T08:41:14;5.90;99.90
17687;DHT22;8962;52.538;13.266;2023-03-04T08:43:43;6.10;99.90
17687;DHT22;8962;52.538;13.266;2023-03-04T08:46:11;6.20;99.90
17687;DHT22;8962;52.538;13.266;2023-03-04T08:48:39;6.20;99.90
17687;DHT22;8962;52.538;13.266;2023-03-04T08:51:08;6.20;99.90
17687;DHT22;8962;52.538;13.266;2023-03-04T08:53:38;6.30;99.90
17687;DHT22;8962;52.538;13.266;2023-03-04T08:56:11;6.30;99.90
17687;DHT22;8962;52.538;13.266;2023-03-04T08:58:41;6.30;99.90
17687;DHT22;8962;52.538;13.266;2023-03-04T09:01:09;6.30;99.90
17687;DHT22;8962;52.538;13.266;2023-03-04T09:03:37;6.40;99.90
17687;DHT22;8962;52.538;13.266;2023-03-04T09:06:06;6.40;99.90
17687;DHT22;8962;52.538;13.266;2023-03-04T09:08:34;6.50;99.90
17687;DHT22;8962;52.538;13.266;2023-03-04T09:11:01;6.60;99.90
17687;DHT22;8962;52.538;13.266;2023-03-04T09:13:30;6.70;99.90
17687;DHT22;8962;52.538;13.266;2023-03-04T09:16:00;6.70;99.90
17687;DHT22;8962;52.538;13.266;2023-03-04T09:18:30;6.80;99.90
17687;DHT22;8962;52.538;13.266;2023-03-04T09:20:58;6.90;99.90
17687;DHT22;8962;52.538;13.266;2023-03-04T09:23:25;6.90;99.90
17687;DHT22;8962;52.538;13.266;2023-03-04T09:25:52;6.80;99.90
17687;DHT22;8962;52.538;13.266;2023-03-04T09:28:19;6.80;99.90
17687;DHT22;8962;52.538;13.266;2023-03-04T09:30:48;6.60;99.90
17687;DHT22;8962;52.538;13.266;2023-03-04T09:33:17;6.80;99.90
17687;DHT22;8962;52.538;13.266;2023-03-04T09:35:44;6.90;99.90
17687;DHT22;8962;52.538;13.266;2023-03-04T09:38:19;6.80;99.90
17687;DHT22;8962;52.538;13.266;2023-03-04T09:40:49;6.70;99.90
17687;DHT22;8962;52.538;13.266;2023-03-04T09:43:22;6.70;99.90
17687;DHT22;8962;52.538;13.266;2023-03-04T09:46:18;6.70;99.90
17687;DHT22;8962;52.538;13.266;2023-03-04T09:48:54;6.60;99.90
17687;DHT22;8962;52.538;13.266;2023-03-04T09:51:39;6.60;99.90
17687;DHT22;8962;52.538;13.266;2023-03-04T09:54:09;6.60;99.90
17687;DHT22;8962;52.538;13.266;2023-03-04T09:56:40;6.60;99.90
17687;DHT22;8962;52.538;13.266;2023-03-04T09:59:16;6.60;99.90
17687;DHT22;8962;52.538;13.266;2023-03-04T10:01:48;6.60;99.90
17687;DHT22;8962;52.538;13.266;2023-03-04T10:04:24;6.60;99.90
17687;DHT22;8962;52.538;13.266;2023-03-04T10:06:54;6.60;99.90
17687;DHT22;8962;52.538;13.266;2023-03-04T10:09:26;6.60;99.90
17687;DHT22;8962;52.538;13.266;2023-03-04T10:11:59;6.60;99.90
17687;DHT22;8962;52.538;13.266;2023-03-04T10:14:33;6.60;99.90
17687;DHT22;8962;52.538;13.266;2023-03-04T10:17:06;6.80;99.90
17687;DHT22;8962;52.538;13.266;2023-03-04T10:19:50;6.80;99.90
17687;DHT22;8962;52.538;13.266;2023-03-04T10:22:25;6.70;99.90
17687;DHT22;8962;52.538;13.266;2023-03-04T10:24:57;6.70;99.90
17687;DHT22;8962;52.538;13.266;2023-03-04T10:27:25;6.70;99.90
17687;DHT22;8962;52.538;13.266;2023-03-04T10:29:57;6.80;99.90
17687;DHT22;8962;52.538;13.266;2023-03-04T10:32:24;6.80;99.90
17687;DHT22;8962;52.538;13.266;2023-03-04T10:34:53;7.00;99.90
17687;DHT22;8962;52.538;13.266;2023-03-04T10:37:20;7.20;99.90
17687;DHT22;8962;52.538;13.266;2023-03-04T10:39:49;7.30;99.90
17687;DHT22;8962;52.538;13.266;2023-03-04T10:42:27;7.10;99.90
17687;DHT22;8962;52.538;13.266;2023-03-04T10:45:02;7.10;99.90
17687;DHT22;8962;52.538;13.266;2023-03-04T10:47:31;7.20;99.90
17687;DHT22;8962;52.538;13.266;2023-03-04T10:50:03;7.30;99.90
17687;DHT22;8962;52.538;13.266;2023-03-04T10:52:34;7.40;99.90
17687;DHT22;8962;52.538;13.266;2023-03-04T10:55:12;7.30;99.90
17687;DHT22;8962;52.538;13.266;2023-03-04T10:57:42;7.30;99.90
17687;DHT22;8962;52.538;13.266;2023-03-04T11:00:25;7.30;99.90
17687;DHT22;8962;52.538;13.266;2023-03-04T11:03:34;7.20;99.90
17687;DHT22;8962;52.538;13.266;2023-03-04T11:06:16;7.10;99.90
17687;DHT22;8962;52.538;13.266;2023-03-04T11:08:52;7.20;99.90
17687;DHT22;8962;52.538;13.266;2023-03-04T11:11:37;7.30;99.90
17687;DHT22;8962;52.538;13.266;2023-03-04T11:14:13;7.30;99.90
17687;DHT22;8962;52.538;13.266;2023-03-04T11:16:51;7.30;99.90
17687;DHT22;8962;52.538;13.266;2023-03-04T11:19:22;7.10;99.90
17687;DHT22;8962;52.538;13.266;2023-03-04T11:21:58;7.10;99.90
17687;DHT22;8962;52.538;13.266;2023-03-04T11:24:28;7.00;99.90
17687;DHT22;8962;52.538;13.266;2023-03-04T11:27:01;6.90;99.90
17687;DHT22;8962;52.538;13.266;2023-03-04T11:29:33;6.80;99.90
17687;DHT22;8962;52.538;13.266;2023-03-04T11:32:07;6.80;99.90
17687;DHT22;8962;52.538;13.266;2023-03-04T11:34:43;6.70;99.90
17687;DHT22;8962;52.538;13.266;2023-03-04T11:37:18;6.70;99.90
17687;DHT22;8962;52.538;13.266;2023-03-04T11:39:51;6.80;99.90
17687;DHT22;8962;52.538;13.266;2023-03-04T11:42:32;6.90;99.90
17687;DHT22;8962;52.538;13.266;2023-03-04T11:45:01;7.00;99.90
17687;DHT22;8962;52.538;13.266;2023-03-04T11:47:54;7.00;99.90
17687;DHT22;8962;52.538;13.266;2023-03-04T11:50:31;7.00;99.90
17687;DHT22;8962;52.538;13.266;2023-03-04T11:56:15;6.90;99.90
17687;DHT22;8962;52.538;13.266;2023-03-04T11:59:12;6.90;99.90
17687;DHT22;8962;52.538;13.266;2023-03-04T12:01:49;6.80;99.90
17687;DHT22;8962;52.538;13.266;2023-03-04T12:04:42;6.90;99.90
17687;DHT22;8962;52.538;13.266;2023-03-04T12:07:35;7.00;99.90
17687;DHT22;8962;52.538;13.266;2023-03-04T12:10:18;7.00;99.90
17687;DHT22;8962;52.538;13.266;2023-03-04T12:15:45;7.20;99.90
17687;DHT22;8962;52.538;13.266;2023-03-04T12:18:24;7.20;99.90
17687;DHT22;8962;52.538;13.266;2023-03-04T12:21:03;7.10;99.90
17687;DHT22;8962;52.538;13.266;2023-03-04T12:26:56;7.10;99.90
17687;DHT22;8962;52.538;13.266;2023-03-04T12:29:35;7.20;99.90
17687;DHT22;8962;52.538;13.266;2023-03-04T12:32:10;7.10;99.90
17687;DHT22;8962;52.538;13.266;2023-03-04T12:34:56;7.00;99.90
17687;DHT22;8962;52.538;13.266;2023-03-04T12:37:49;7.10;99.90
17687;DHT22;8962;52.538;13.266;2023-03-04T12:40:31;7.20;99.90
17687;DHT22;8962;52.538;13.266;2023-03-04T12:43:39;7.10;99.90
17687;DHT22;8962;52.538;13.266;2023-03-04T12:46:43;7.00;99.90
17687;DHT22;8962;52.538;13.266;2023-03-04T12:49:37;7.00;99.90
17687;DHT22;8962;52.538;13.266;2023-03-04T12:52:14;7.00;99.90
17687;DHT22;8962;52.538;13.266;2023-03-04T12:54:59;7.10;99.90
17687;DHT22;8962;52.538;13.266;2023-03-04T12:57:29;7.30;99.90
17687;DHT22;8962;52.538;13.266;2023-03-04T13:00:13;7.30;99.90
17687;DHT22;8962;52.538;13.266;2023-03-04T13:02:50;7.20;99.90
17687;DHT22;8962;52.538;13.266;2023-03-04T13:05:33;7.20;99.90
17687;DHT22;8962;52.538;13.266;2023-03-04T13:08:15;7.20;99.90
17687;DHT22;8962;52.538;13.266;2023-03-04T13:10:45;7.10;99.90
17687;DHT22;8962;52.538;13.266;2023-03-04T13:13:32;7.20;99.90
17687;DHT22;8962;52.538;13.266;2023-03-04T13:16:04;7.30;99.90
17687;DHT22;8962;52.538;13.266;2023-03-04T13:18:35;7.40;99.90
17687;DHT22;8962;52.538;13.266;2023-03-04T13:21:15;7.50;99.90
17687;DHT22;8962;52.538;13.266;2023-03-04T13:23:44;7.60;99.90
17687;DHT22;8962;52.538;13.266;2023-03-04T13:26:18;7.30;99.90
17687;DHT22;8962;52.538;13.266;2023-03-04T13:28:54;7.20;99.90
17687;DHT22;8962;52.538;13.266;2023-03-04T13:31:24;7.20;99.90
17687;DHT22;8962;52.538;13.266;2023-03-04T13:34:01;7.00;99.90
17687;DHT22;8962;52.538;13.266;2023-03-04T13:39:26;7.00;99.90
17687;DHT22;8962;52.538;13.266;2023-03-04T13:41:54;6.90;99.90
17687;DHT22;8962;52.538;13.266;2023-03-04T13:47:46;7.10;99.90
17687;DHT22;8962;52.538;13.266;2023-03-04T13:50:32;7.20;99.90
17687;DHT22;8962;52.538;13.266;2023-03-04T13:56:09;7.20;99.90
17687;DHT22;8962;52.538;13.266;2023-03-04T13:58:48;7.00;99.90
17687;DHT22;8962;52.538;13.266;2023-03-04T14:01:34;6.90;99.90
17687;DHT22;8962;52.538;13.266;2023-03-04T14:04:16;7.00;99.90
17687;DHT22;8962;52.538;13.266;2023-03-04T14:06:45;6.90;99.90
17687;DHT22;8962;52.538;13.266;2023-03-04T14:09:14;6.80;99.90
17687;DHT22;8962;52.538;13.266;2023-03-04T14:11:46;6.80;99.90
17687;DHT22;8962;52.538;13.266;2023-03-04T14:14:16;6.90;99.90
17687;DHT22;8962;52.538;13.266;2023-03-04T14:16:48;6.90;99.90
17687;DHT22;8962;52.538;13.266;2023-03-04T14:19:20;7.00;99.90
17687;DHT22;8962;52.538;13.266;2023-03-04T14:21:49;7.00;99.90
17687;DHT22;8962;52.538;13.266;2023-03-04T14:24:19;7.00;99.90
17687;DHT22;8962;52.538;13.266;2023-03-04T14:26:46;7.10;99.90
17687;DHT22;8962;52.538;13.266;2023-03-04T14:29:26;7.10;99.90
17687;DHT22;8962;52.538;13.266;2023-03-04T14:31:55;7.10;99.90
17687;DHT22;8962;52.538;13.266;2023-03-04T14:34:28;7.00;99.90
17687;DHT22;8962;52.538;13.266;2023-03-04T14:36:58;6.80;99.90
17687;DHT22;8962;52.538;13.266;2023-03-04T14:39:28;6.70;99.90
17687;DHT22;8962;52.538;13.266;2023-03-04T14:42:00;6.40;99.90
17687;DHT22;8962;52.538;13.266;2023-03-04T14:44:30;6.30;99.90
17687;DHT22;8962;52.538;13.266;2023-03-04T14:47:08;6.20;99.90
17687;DHT22;8962;52.538;13.266;2023-03-04T14:49:40;6.20;99.90
17687;DHT22;8962;52.538;13.266;2023-03-04T14:52:26;6.20;99.90
17687;DHT22;8962;52.538;13.266;2023-03-04T14:55:07;6.20;99.90
17687;DHT22;8962;52.538;13.266;2023-03-04T14:57:37;6.10;99.90
17687;DHT22;8962;52.538;13.266;2023-03-04T15:00:16;6.20;99.90
17687;DHT22;8962;52.538;13.266;2023-03-04T15:02:51;6.10;99.90
17687;DHT22;8962;52.538;13.266;2023-03-04T15:05:24;6.10;99.90
17687;DHT22;8962;52.538;13.266;2023-03-04T15:07:53;6.20;99.90
17687;DHT22;8962;52.538;13.266;2023-03-04T15:10:23;6.20;99.90
17687;DHT22;8962;52.538;13.266;2023-03-04T15:12:52;6.20;99.90
17687;DHT22;8962;52.538;13.266;2023-03-04T15:15:38;6.20;99.90
17687;DHT22;8962;52.538;13.266;2023-03-04T15:18:20;6.10;99.90
17687;DHT22;8962;52.538;13.266;2023-03-04T15:20:56;6.00;99.90
17687;DHT22;8962;52.538;13.266;2023-03-04T15:23:24;6.00;99.90
17687;DHT22;8962;52.538;13.266;2023-03-04T15:25:53;6.00;99.90
17687;DHT22;8962;52.538;13.266;2023-03-04T15:28:22;6.00;99.90
17687;DHT22;8962;52.538;13.266;2023-03-04T15:30:50;6.00;99.90
17687;DHT22;8962;52.538;13.266;2023-03-04T15:33:18;5.90;99.90
17687;DHT22;8962;52.538;13.266;2023-03-04T15:35:51;5.90;99.90
17687;DHT22;8962;52.538;13.266;2023-03-04T15:38:21;5.90;99.90
17687;DHT22;8962;52.538;13.266;2023-03-04T15:40:48;5.90;99.90
17687;DHT22;8962;52.538;13.266;2023-03-04T15:43:17;5.80;99.90
17687;DHT22;8962;52.538;13.266;2023-03-04T15:45:47;5.80;99.90
17687;DHT22;8962;52.538;13.266;2023-03-04T15:48:16;5.80;99.90
17687;DHT22;8962;52.538;13.266;2023-03-04T15:50:46;5.80;99.90
17687;DHT22;8962;52.538;13.266;2023-03-04T15:53:15;5.90;99.90
17687;DHT22;8962;52.538;13.266;2023-03-04T15:55:46;6.00;99.90
17687;DHT22;8962;52.538;13.266;2023-03-04T15:58:13;6.00;99.90
17687;DHT22;8962;52.538;13.266;2023-03-04T16:00:42;6.00;99.90
17687;DHT22;8962;52.538;13.266;2023-03-04T16:03:14;6.00;99.90
17687;DHT22;8962;52.538;13.266;2023-03-04T16:05:42;6.00;99.90
17687;DHT22;8962;52.538;13.266;2023-03-04T16:08:12;6.00;99.90
17687;DHT22;8962;52.538;13.266;2023-03-04T16:10:41;6.00;99.90
17687;DHT22;8962;52.538;13.266;2023-03-04T16:13:13;5.90;99.90
17687;DHT22;8962;52.538;13.266;2023-03-04T16:15:42;5.90;99.90
17687;DHT22;8962;52.538;13.266;2023-03-04T16:18:13;5.80;99.90
17687;DHT22;8962;52.538;13.266;2023-03-04T16:20:43;5.80;99.90
17687;DHT22;8962;52.538;13.266;2023-03-04T16:23:13;5.80;99.90
17687;DHT22;8962;52.538;13.266;2023-03-04T16:25:44;5.80;99.90
17687;DHT22;8962;52.538;13.266;2023-03-04T16:28:13;5.80;99.90